sensor_id;sensor_type;location;lat;lon;timestamp;P1;durP1;ratioP1;P2;durP2;ratioP2
49175;SDS011;35012;47.200;9.748;2023-06-24T00:02:13;5.93;;;5.27;;
49175;SDS011;35012;47.200;9.748;2023-06-24T00:04:38;5.30;;;4.80;;
49175;SDS011;35012;47.200;9.748;2023-06-24T00:07:04;8.33;;;4.87;;
49175;SDS011;35012;47.200;9.748;2023-06-24T00:09:30;6.17;;;4.87;;
49175;SDS011;35012;47.200;9.748;2023-06-24T00:11:56;5.47;;;4.97;;
49175;SDS011;35012;47.200;9.748;2023-06-24T00:14:24;5.47;;;5.00;;
49175;SDS011;35012;47.200;9.748;2023-06-24T00:16:51;6.07;;;4.63;;
49175;SDS011;35012;47.200;9.748;2023-06-24T00:19:22;6.27;;;4.80;;
49175;SDS011;35012;47.200;9.748;2023-06-24T00:21:49;5.27;;;4.77;;
49175;SDS011;35012;47.200;9.748;2023-06-24T00:24:21;5.40;;;4.90;;
49175;SDS011;35012;47.200;9.748;2023-06-24T00:26:51;7.57;;;5.10;;
49175;SDS011;35012;47.200;9.748;2023-06-24T00:29:17;5.37;;;4.87;;
49175;SDS011;35012;47.200;9.748;2023-06-24T00:31:43;5.33;;;4.73;;
49175;SDS011;35012;47.200;9.748;2023-06-24T00:34:09;6.67;;;4.53;;
49175;SDS011;35012;47.200;9.748;2023-06-24T00:36:34;6.80;;;4.70;;
49175;SDS011;35012;47.200;9.748;2023-06-24T00:39:04;5.20;;;4.70;;
49175;SDS011;35012;47.200;9.748;2023-06-24T00:41:31;5.60;;;4.93;;
49175;SDS011;35012;47.200;9.748;2023-06-24T00:43:57;5.00;;;4.60;;
49175;SDS011;35012;47.200;9.748;2023-06-24T00:46:27;5.73;;;5.20;;
49175;SDS011;35012;47.200;9.748;2023-06-24T00:48:56;6.20;;;5.23;;
49175;SDS011;35012;47.200;9.748;2023-06-24T00:51:23;9.47;;;5.00;;
49175;SDS011;35012;47.200;9.748;2023-06-24T00:53:56;5.53;;;5.03;;
49175;SDS011;35012;47.200;9.748;2023-06-24T00:56:24;6.07;;;5.03;;
49175;SDS011;35012;47.200;9.748;2023-06-24T00:58:53;6.63;;;5.37;;
49175;SDS011;35012;47.200;9.748;2023-06-24T01:01:19;6.50;;;4.90;;
49175;SDS011;35012;47.200;9.748;2023-06-24T01:03:45;6.43;;;4.80;;
49175;SDS011;35012;47.200;9.748;2023-06-24T01:06:12;8.40;;;5.33;;
49175;SDS011;35012;47.200;9.748;2023-06-24T01:08:38;7.37;;;4.43;;
49175;SDS011;35012;47.200;9.748;2023-06-24T01:11:04;5.00;;;4.60;;
49175;SDS011;35012;47.200;9.748;2023-06-24T01:13:30;5.30;;;4.80;;
49175;SDS011;35012;47.200;9.748;2023-06-24T01:15:56;6.90;;;4.80;;
49175;SDS011;35012;47.200;9.748;2023-06-24T01:19:02;5.43;;;4.93;;
49175;SDS011;35012;47.200;9.748;2023-06-24T01:30:11;6.17;;;5.20;;
49175;SDS011;35012;47.200;9.748;2023-06-24T01:32:44;7.00;;;4.80;;
49175;SDS011;35012;47.200;9.748;2023-06-24T01:35:16;6.97;;;5.20;;
49175;SDS011;35012;47.200;9.748;2023-06-24T01:37:52;6.70;;;5.23;;
49175;SDS011;35012;47.200;9.748;2023-06-24T01:40:26;4.93;;;4.47;;
49175;SDS011;35012;47.200;9.748;2023-06-24T01:42:53;5.67;;;4.90;;
49175;SDS011;35012;47.200;9.748;2023-06-24T01:45:23;7.20;;;5.30;;
49175;SDS011;35012;47.200;9.748;2023-06-24T01:47:59;5.53;;;4.70;;
49175;SDS011;35012;47.200;9.748;2023-06-24T01:50:27;5.80;;;4.70;;
49175;SDS011;35012;47.200;9.748;2023-06-24T01:52:56;6.83;;;5.00;;
49175;SDS011;35012;47.200;9.748;2023-06-24T01:55:22;7.37;;;5.00;;
49175;SDS011;35012;47.200;9.748;2023-06-24T01:57:49;6.77;;;5.13;;
49175;SDS011;35012;47.200;9.748;2023-06-24T02:00:16;4.90;;;4.37;;
49175;SDS011;35012;47.200;9.748;2023-06-24T02:02:42;5.30;;;4.80;;
49175;SDS011;35012;47.200;9.748;2023-06-24T02:05:09;7.57;;;5.17;;
49175;SDS011;35012;47.200;9.748;2023-06-24T02:07:35;7.67;;;5.27;;
49175;SDS011;35012;47.200;9.748;2023-06-24T02:10:02;5.70;;;5.20;;
49175;SDS011;35012;47.200;9.748;2023-06-24T02:12:28;6.03;;;5.23;;
49175;SDS011;35012;47.200;9.748;2023-06-24T02:14:55;5.73;;;5.13;;
49175;SDS011;35012;47.200;9.748;2023-06-24T02:17:23;6.57;;;5.40;;
49175;SDS011;35012;47.200;9.748;2023-06-24T02:19:50;6.17;;;5.30;;
49175;SDS011;35012;47.200;9.748;2023-06-24T02:22:15;6.50;;;4.97;;
49175;SDS011;35012;47.200;9.748;2023-06-24T02:24:42;5.60;;;4.63;;
49175;SDS011;35012;47.200;9.748;2023-06-24T02:27:08;5.93;;;5.33;;
49175;SDS011;35012;47.200;9.748;2023-06-24T02:29:34;6.10;;;5.17;;
49175;SDS011;35012;47.200;9.748;2023-06-24T02:32:01;6.70;;;5.03;;
49175;SDS011;35012;47.200;9.748;2023-06-24T02:34:27;6.23;;;5.40;;
49175;SDS011;35012;47.200;9.748;2023-06-24T02:36:53;8.23;;;5.33;;
49175;SDS011;35012;47.200;9.748;2023-06-24T02:39:19;5.70;;;5.10;;
49175;SDS011;35012;47.200;9.748;2023-06-24T02:41:45;5.60;;;5.00;;
49175;SDS011;35012;47.200;9.748;2023-06-24T02:44:12;5.87;;;4.87;;
49175;SDS011;35012;47.200;9.748;2023-06-24T02:46:38;7.43;;;5.27;;
49175;SDS011;35012;47.200;9.748;2023-06-24T02:49:05;5.13;;;4.63;;
49175;SDS011;35012;47.200;9.748;2023-06-24T02:51:31;6.57;;;4.97;;
49175;SDS011;35012;47.200;9.748;2023-06-24T02:53:58;5.53;;;5.03;;
49175;SDS011;35012;47.200;9.748;2023-06-24T02:56:25;5.30;;;4.80;;
49175;SDS011;35012;47.200;9.748;2023-06-24T02:58:53;6.03;;;5.30;;
49175;SDS011;35012;47.200;9.748;2023-06-24T03:01:19;6.33;;;5.07;;
49175;SDS011;35012;47.200;9.748;2023-06-24T03:03:50;9.03;;;5.03;;
49175;SDS011;35012;47.200;9.748;2023-06-24T03:06:18;8.37;;;5.13;;
49175;SDS011;35012;47.200;9.748;2023-06-24T03:08:44;5.57;;;4.97;;
49175;SDS011;35012;47.200;9.748;2023-06-24T03:11:13;6.90;;;5.43;;
49175;SDS011;35012;47.200;9.748;2023-06-24T03:13:40;5.50;;;5.00;;
49175;SDS011;35012;47.200;9.748;2023-06-24T03:16:06;7.20;;;5.00;;
49175;SDS011;35012;47.200;9.748;2023-06-24T03:18:37;5.63;;;5.03;;
49175;SDS011;35012;47.200;9.748;2023-06-24T03:21:04;5.87;;;4.87;;
49175;SDS011;35012;47.200;9.748;2023-06-24T03:23:31;7.43;;;4.63;;
49175;SDS011;35012;47.200;9.748;2023-06-24T03:25:57;5.23;;;4.67;;
49175;SDS011;35012;47.200;9.748;2023-06-24T03:28:22;5.10;;;4.50;;
49175;SDS011;35012;47.200;9.748;2023-06-24T03:30:48;5.60;;;4.70;;
49175;SDS011;35012;47.200;9.748;2023-06-24T03:33:13;6.10;;;4.73;;
49175;SDS011;35012;47.200;9.748;2023-06-24T03:35:42;5.23;;;4.60;;
49175;SDS011;35012;47.200;9.748;2023-06-24T03:38:08;4.90;;;4.50;;
49175;SDS011;35012;47.200;9.748;2023-06-24T03:40:34;6.93;;;5.30;;
49175;SDS011;35012;47.200;9.748;2023-06-24T03:42:59;5.93;;;4.53;;
49175;SDS011;35012;47.200;9.748;2023-06-24T03:45:25;5.20;;;4.70;;
49175;SDS011;35012;47.200;9.748;2023-06-24T03:47:51;5.67;;;4.97;;
49175;SDS011;35012;47.200;9.748;2023-06-24T03:50:16;6.07;;;5.47;;
49175;SDS011;35012;47.200;9.748;2023-06-24T03:52:42;5.57;;;5.07;;
49175;SDS011;35012;47.200;9.748;2023-06-24T03:55:09;5.90;;;4.90;;
49175;SDS011;35012;47.200;9.748;2023-06-24T03:57:36;7.03;;;4.90;;
49175;SDS011;35012;47.200;9.748;2023-06-24T04:00:02;6.03;;;4.80;;
49175;SDS011;35012;47.200;9.748;2023-06-24T04:02:37;6.30;;;4.83;;
49175;SDS011;35012;47.200;9.748;2023-06-24T04:05:03;7.07;;;5.17;;
49175;SDS011;35012;47.200;9.748;2023-06-24T04:07:31;5.37;;;4.87;;
49175;SDS011;35012;47.200;9.748;2023-06-24T04:09:57;5.23;;;4.73;;
49175;SDS011;35012;47.200;9.748;2023-06-24T04:12:22;4.90;;;4.50;;
49175;SDS011;35012;47.200;9.748;2023-06-24T04:14:48;5.90;;;4.53;;
49175;SDS011;35012;47.200;9.748;2023-06-24T04:17:14;5.73;;;4.90;;
49175;SDS011;35012;47.200;9.748;2023-06-24T04:19:40;5.90;;;4.90;;
49175;SDS011;35012;47.200;9.748;2023-06-24T04:22:07;6.50;;;5.20;;
49175;SDS011;35012;47.200;9.748;2023-06-24T04:24:33;5.60;;;4.73;;
49175;SDS011;35012;47.200;9.748;2023-06-24T04:26:58;5.97;;;5.10;;
49175;SDS011;35012;47.200;9.748;2023-06-24T04:29:24;6.07;;;5.20;;
49175;SDS011;35012;47.200;9.748;2023-06-24T04:31:49;5.20;;;4.70;;
49175;SDS011;35012;47.200;9.748;2023-06-24T04:34:15;6.40;;;4.70;;
49175;SDS011;35012;47.200;9.748;2023-06-24T04:36:41;6.87;;;4.67;;
49175;SDS011;35012;47.200;9.748;2023-06-24T04:39:06;5.10;;;4.60;;
49175;SDS011;35012;47.200;9.748;2023-06-24T04:41:33;4.70;;;4.30;;
49175;SDS011;35012;47.200;9.748;2023-06-24T04:43:58;5.93;;;4.73;;
49175;SDS011;35012;47.200;9.748;2023-06-24T04:46:24;5.20;;;4.70;;
49175;SDS011;35012;47.200;9.748;2023-06-24T04:48:50;6.57;;;4.93;;
49175;SDS011;35012;47.200;9.748;2023-06-24T04:51:16;5.77;;;5.20;;
49175;SDS011;35012;47.200;9.748;2023-06-24T04:53:41;6.10;;;5.13;;
49175;SDS011;35012;47.200;9.748;2023-06-24T04:56:07;5.37;;;4.87;;
49175;SDS011;35012;47.200;9.748;2023-06-24T04:58:33;5.20;;;4.80;;
49175;SDS011;35012;47.200;9.748;2023-06-24T05:00:58;5.40;;;4.90;;
49175;SDS011;35012;47.200;9.748;2023-06-24T05:03:24;5.43;;;4.87;;
49175;SDS011;35012;47.200;9.748;2023-06-24T05:05:50;6.57;;;5.03;;
49175;SDS011;35012;47.200;9.748;2023-06-24T05:08:15;8.73;;;5.90;;
49175;SDS011;35012;47.200;9.748;2023-06-24T05:10:41;5.97;;;5.37;;
49175;SDS011;35012;47.200;9.748;2023-06-24T05:13:06;6.70;;;4.50;;
49175;SDS011;35012;47.200;9.748;2023-06-24T05:15:32;5.30;;;4.80;;
49175;SDS011;35012;47.200;9.748;2023-06-24T05:17:57;5.53;;;5.00;;
49175;SDS011;35012;47.200;9.748;2023-06-24T05:20:23;5.70;;;4.60;;
49175;SDS011;35012;47.200;9.748;2023-06-24T05:22:48;6.60;;;4.83;;
49175;SDS011;35012;47.200;9.748;2023-06-24T05:25:14;5.97;;;4.90;;
49175;SDS011;35012;47.200;9.748;2023-06-24T05:27:39;5.73;;;5.13;;
49175;SDS011;35012;47.200;9.748;2023-06-24T05:30:05;5.53;;;5.03;;
49175;SDS011;35012;47.200;9.748;2023-06-24T05:32:31;7.00;;;4.80;;
49175;SDS011;35012;47.200;9.748;2023-06-24T05:34:57;6.33;;;5.43;;
49175;SDS011;35012;47.200;9.748;2023-06-24T05:37:22;7.03;;;5.30;;
49175;SDS011;35012;47.200;9.748;2023-06-24T05:39:48;6.00;;;5.40;;
49175;SDS011;35012;47.200;9.748;2023-06-24T05:42:13;6.87;;;5.00;;
49175;SDS011;35012;47.200;9.748;2023-06-24T05:44:39;6.40;;;5.13;;
49175;SDS011;35012;47.200;9.748;2023-06-24T05:47:04;7.03;;;5.23;;
49175;SDS011;35012;47.200;9.748;2023-06-24T05:49:30;6.03;;;5.40;;
49175;SDS011;35012;47.200;9.748;2023-06-24T05:51:56;6.00;;;5.20;;
49175;SDS011;35012;47.200;9.748;2023-06-24T05:54:22;6.93;;;5.00;;
49175;SDS011;35012;47.200;9.748;2023-06-24T05:56:48;6.27;;;5.67;;
49175;SDS011;35012;47.200;9.748;2023-06-24T05:59:14;6.83;;;6.00;;
49175;SDS011;35012;47.200;9.748;2023-06-24T06:01:39;6.57;;;5.83;;
49175;SDS011;35012;47.200;9.748;2023-06-24T06:04:05;5.83;;;4.93;;
49175;SDS011;35012;47.200;9.748;2023-06-24T06:06:31;7.07;;;5.97;;
49175;SDS011;35012;47.200;9.748;2023-06-24T06:08:56;5.80;;;5.27;;
49175;SDS011;35012;47.200;9.748;2023-06-24T06:11:22;7.90;;;5.13;;
49175;SDS011;35012;47.200;9.748;2023-06-24T06:13:48;6.13;;;5.53;;
49175;SDS011;35012;47.200;9.748;2023-06-24T06:16:14;6.27;;;5.57;;
49175;SDS011;35012;47.200;9.748;2023-06-24T06:18:39;7.93;;;7.20;;
49175;SDS011;35012;47.200;9.748;2023-06-24T06:21:05;7.70;;;6.63;;
49175;SDS011;35012;47.200;9.748;2023-06-24T06:23:30;8.77;;;7.87;;
49175;SDS011;35012;47.200;9.748;2023-06-24T06:25:56;10.17;;;7.97;;
49175;SDS011;35012;47.200;9.748;2023-06-24T06:28:22;8.30;;;7.50;;
49175;SDS011;35012;47.200;9.748;2023-06-24T06:30:47;9.67;;;8.77;;
49175;SDS011;35012;47.200;9.748;2023-06-24T06:33:13;8.30;;;7.37;;
49175;SDS011;35012;47.200;9.748;2023-06-24T06:35:38;7.37;;;6.67;;
49175;SDS011;35012;47.200;9.748;2023-06-24T06:38:04;7.77;;;7.07;;
49175;SDS011;35012;47.200;9.748;2023-06-24T06:40:30;7.50;;;6.53;;
49175;SDS011;35012;47.200;9.748;2023-06-24T06:42:56;8.83;;;6.53;;
49175;SDS011;35012;47.200;9.748;2023-06-24T06:45:21;8.77;;;6.57;;
49175;SDS011;35012;47.200;9.748;2023-06-24T06:47:48;7.30;;;6.17;;
49175;SDS011;35012;47.200;9.748;2023-06-24T06:50:14;7.00;;;6.37;;
49175;SDS011;35012;47.200;9.748;2023-06-24T06:52:40;7.20;;;6.50;;
49175;SDS011;35012;47.200;9.748;2023-06-24T06:55:06;7.37;;;5.93;;
49175;SDS011;35012;47.200;9.748;2023-06-24T06:57:32;8.40;;;6.50;;
49175;SDS011;35012;47.200;9.748;2023-06-24T06:59:58;8.13;;;6.73;;
49175;SDS011;35012;47.200;9.748;2023-06-24T07:02:23;7.17;;;5.97;;
49175;SDS011;35012;47.200;9.748;2023-06-24T07:04:49;6.73;;;6.03;;
49175;SDS011;35012;47.200;9.748;2023-06-24T07:07:16;7.93;;;6.63;;
49175;SDS011;35012;47.200;9.748;2023-06-24T07:09:42;7.03;;;6.23;;
49175;SDS011;35012;47.200;9.748;2023-06-24T07:12:08;6.53;;;5.93;;
49175;SDS011;35012;47.200;9.748;2023-06-24T07:14:33;7.03;;;5.93;;
49175;SDS011;35012;47.200;9.748;2023-06-24T07:16:59;8.07;;;6.37;;
49175;SDS011;35012;47.200;9.748;2023-06-24T07:19:25;7.33;;;6.63;;
49175;SDS011;35012;47.200;9.748;2023-06-24T07:21:51;6.13;;;5.53;;
49175;SDS011;35012;47.200;9.748;2023-06-24T07:24:17;6.20;;;5.60;;
49175;SDS011;35012;47.200;9.748;2023-06-24T07:26:42;6.53;;;5.60;;
49175;SDS011;35012;47.200;9.748;2023-06-24T07:29:08;6.33;;;5.53;;
49175;SDS011;35012;47.200;9.748;2023-06-24T07:31:34;6.23;;;5.00;;
49175;SDS011;35012;47.200;9.748;2023-06-24T07:34:01;6.67;;;5.23;;
49175;SDS011;35012;47.200;9.748;2023-06-24T07:36:26;7.67;;;5.93;;
49175;SDS011;35012;47.200;9.748;2023-06-24T07:38:52;6.10;;;5.50;;
49175;SDS011;35012;47.200;9.748;2023-06-24T07:41:17;5.47;;;4.93;;
49175;SDS011;35012;47.200;9.748;2023-06-24T07:43:43;4.67;;;4.27;;
49175;SDS011;35012;47.200;9.748;2023-06-24T07:46:09;7.03;;;5.20;;
49175;SDS011;35012;47.200;9.748;2023-06-24T07:48:34;4.60;;;4.07;;
49175;SDS011;35012;47.200;9.748;2023-06-24T07:51:00;4.63;;;4.20;;
49175;SDS011;35012;47.200;9.748;2023-06-24T07:53:26;4.97;;;4.13;;
49175;SDS011;35012;47.200;9.748;2023-06-24T07:55:51;5.13;;;4.60;;
49175;SDS011;35012;47.200;9.748;2023-06-24T07:58:17;6.30;;;4.33;;
49175;SDS011;35012;47.200;9.748;2023-06-24T08:00:44;4.60;;;4.20;;
49175;SDS011;35012;47.200;9.748;2023-06-24T08:03:10;5.57;;;4.70;;
49175;SDS011;35012;47.200;9.748;2023-06-24T08:05:37;4.90;;;4.40;;
49175;SDS011;35012;47.200;9.748;2023-06-24T08:08:04;5.10;;;4.60;;
49175;SDS011;35012;47.200;9.748;2023-06-24T08:10:30;4.50;;;4.10;;
49175;SDS011;35012;47.200;9.748;2023-06-24T08:12:56;4.77;;;4.33;;
49175;SDS011;35012;47.200;9.748;2023-06-24T08:15:21;4.50;;;4.10;;
49175;SDS011;35012;47.200;9.748;2023-06-24T08:17:50;5.73;;;4.33;;
49175;SDS011;35012;47.200;9.748;2023-06-24T08:20:17;5.03;;;4.47;;
49175;SDS011;35012;47.200;9.748;2023-06-24T08:22:42;4.77;;;4.27;;
49175;SDS011;35012;47.200;9.748;2023-06-24T08:25:08;5.57;;;4.50;;
49175;SDS011;35012;47.200;9.748;2023-06-24T08:27:33;6.40;;;4.27;;
49175;SDS011;35012;47.200;9.748;2023-06-24T08:29:59;5.27;;;4.20;;
49175;SDS011;35012;47.200;9.748;2023-06-24T08:32:25;4.60;;;4.20;;
49175;SDS011;35012;47.200;9.748;2023-06-24T08:34:50;7.90;;;4.17;;
49175;SDS011;35012;47.200;9.748;2023-06-24T08:37:16;5.50;;;4.43;;
49175;SDS011;35012;47.200;9.748;2023-06-24T08:39:41;4.83;;;4.30;;
49175;SDS011;35012;47.200;9.748;2023-06-24T08:42:07;5.80;;;4.10;;
49175;SDS011;35012;47.200;9.748;2023-06-24T08:44:33;4.63;;;4.23;;
49175;SDS011;35012;47.200;9.748;2023-06-24T08:46:58;4.40;;;4.00;;
49175;SDS011;35012;47.200;9.748;2023-06-24T08:51:51;5.30;;;4.00;;
49175;SDS011;35012;47.200;9.748;2023-06-24T08:54:20;5.37;;;4.33;;
49175;SDS011;35012;47.200;9.748;2023-06-24T08:56:46;4.67;;;4.27;;
49175;SDS011;35012;47.200;9.748;2023-06-24T08:59:12;4.43;;;4.03;;
49175;SDS011;35012;47.200;9.748;2023-06-24T09:01:38;4.43;;;3.87;;
49175;SDS011;35012;47.200;9.748;2023-06-24T09:04:04;4.27;;;3.60;;
49175;SDS011;35012;47.200;9.748;2023-06-24T09:06:33;4.23;;;3.83;;
49175;SDS011;35012;47.200;9.748;2023-06-24T09:08:58;4.77;;;3.90;;
49175;SDS011;35012;47.200;9.748;2023-06-24T09:11:27;4.43;;;3.63;;
49175;SDS011;35012;47.200;9.748;2023-06-24T09:13:56;4.47;;;4.00;;
49175;SDS011;35012;47.200;9.748;2023-06-24T09:16:23;5.23;;;4.20;;
49175;SDS011;35012;47.200;9.748;2023-06-24T09:18:49;5.27;;;4.30;;
49175;SDS011;35012;47.200;9.748;2023-06-24T09:21:25;4.73;;;4.33;;
49175;SDS011;35012;47.200;9.748;2023-06-24T09:23:55;4.50;;;4.10;;
49175;SDS011;35012;47.200;9.748;2023-06-24T09:26:24;4.60;;;4.20;;
49175;SDS011;35012;47.200;9.748;2023-06-24T09:28:50;4.97;;;4.40;;
49175;SDS011;35012;47.200;9.748;2023-06-24T09:31:16;4.20;;;3.73;;
49175;SDS011;35012;47.200;9.748;2023-06-24T09:33:43;4.40;;;4.00;;
49175;SDS011;35012;47.200;9.748;2023-06-24T09:36:15;4.67;;;4.03;;
49175;SDS011;35012;47.200;9.748;2023-06-24T09:38:41;4.57;;;3.90;;
49175;SDS011;35012;47.200;9.748;2023-06-24T09:41:09;3.90;;;3.60;;
49175;SDS011;35012;47.200;9.748;2023-06-24T09:43:35;4.00;;;3.60;;
49175;SDS011;35012;47.200;9.748;2023-06-24T09:46:05;4.43;;;3.97;;
49175;SDS011;35012;47.200;9.748;2023-06-24T09:48:32;4.50;;;3.80;;
49175;SDS011;35012;47.200;9.748;2023-06-24T09:51:03;4.20;;;3.80;;
49175;SDS011;35012;47.200;9.748;2023-06-24T09:53:33;4.00;;;3.60;;
49175;SDS011;35012;47.200;9.748;2023-06-24T09:55:59;3.85;;;3.47;;
49175;SDS011;35012;47.200;9.748;2023-06-24T09:58:26;4.18;;;3.85;;
49175;SDS011;35012;47.200;9.748;2023-06-24T10:00:54;5.03;;;3.50;;
49175;SDS011;35012;47.200;9.748;2023-06-24T10:03:20;4.35;;;3.35;;
49175;SDS011;35012;47.200;9.748;2023-06-24T10:05:46;3.80;;;3.50;;
49175;SDS011;35012;47.200;9.748;2023-06-24T10:08:13;3.85;;;3.55;;
49175;SDS011;35012;47.200;9.748;2023-06-24T10:10:39;4.10;;;3.78;;
49175;SDS011;35012;47.200;9.748;2023-06-24T10:13:04;4.38;;;3.97;;
49175;SDS011;35012;47.200;9.748;2023-06-24T10:15:31;3.85;;;3.53;;
49175;SDS011;35012;47.200;9.748;2023-06-24T10:18:00;4.50;;;3.60;;
49175;SDS011;35012;47.200;9.748;2023-06-24T10:20:27;4.05;;;3.70;;
49175;SDS011;35012;47.200;9.748;2023-06-24T10:22:52;4.30;;;3.90;;
49175;SDS011;35012;47.200;9.748;2023-06-24T10:25:18;4.57;;;4.15;;
49175;SDS011;35012;47.200;9.748;2023-06-24T10:27:44;4.07;;;3.67;;
49175;SDS011;35012;47.200;9.748;2023-06-24T10:30:19;3.92;;;3.63;;
49175;SDS011;35012;47.200;9.748;2023-06-24T10:32:50;4.15;;;3.47;;
49175;SDS011;35012;47.200;9.748;2023-06-24T10:35:38;4.45;;;3.72;;
49175;SDS011;35012;47.200;9.748;2023-06-24T10:38:07;5.25;;;3.75;;
49175;SDS011;35012;47.200;9.748;2023-06-24T10:40:35;6.88;;;6.25;;
49175;SDS011;35012;47.200;9.748;2023-06-24T10:43:38;4.88;;;4.47;;
49175;SDS011;35012;47.200;9.748;2023-06-24T10:45:57;5.43;;;3.45;;
49175;SDS011;35012;47.200;9.748;2023-06-24T10:48:23;3.80;;;3.38;;
49175;SDS011;35012;47.200;9.748;2023-06-24T10:50:49;3.88;;;3.30;;
49175;SDS011;35012;47.200;9.748;2023-06-24T10:53:15;3.53;;;2.90;;
49175;SDS011;35012;47.200;9.748;2023-06-24T10:55:43;4.78;;;3.65;;
49175;SDS011;35012;47.200;9.748;2023-06-24T10:58:11;3.67;;;3.33;;
49175;SDS011;35012;47.200;9.748;2023-06-24T11:00:38;3.20;;;2.97;;
49175;SDS011;35012;47.200;9.748;2023-06-24T11:03:08;3.47;;;3.17;;
49175;SDS011;35012;47.200;9.748;2023-06-24T11:05:36;3.55;;;3.10;;
49175;SDS011;35012;47.200;9.748;2023-06-24T11:08:04;3.40;;;3.10;;
49175;SDS011;35012;47.200;9.748;2023-06-24T11:10:31;6.25;;;3.55;;
49175;SDS011;35012;47.200;9.748;2023-06-24T11:12:56;3.60;;;3.30;;
49175;SDS011;35012;47.200;9.748;2023-06-24T11:15:24;3.70;;;3.40;;
49175;SDS011;35012;47.200;9.748;2023-06-24T11:17:50;4.72;;;3.80;;
49175;SDS011;35012;47.200;9.748;2023-06-24T11:20:16;4.18;;;3.20;;
49175;SDS011;35012;47.200;9.748;2023-06-24T11:22:42;6.03;;;3.90;;
49175;SDS011;35012;47.200;9.748;2023-06-24T11:25:15;3.90;;;3.60;;
49175;SDS011;35012;47.200;9.748;2023-06-24T11:27:42;4.13;;;3.72;;
49175;SDS011;35012;47.200;9.748;2023-06-24T11:30:08;4.30;;;3.90;;
49175;SDS011;35012;47.200;9.748;2023-06-24T11:32:41;4.90;;;4.43;;
49175;SDS011;35012;47.200;9.748;2023-06-24T11:35:08;6.72;;;4.95;;
49175;SDS011;35012;47.200;9.748;2023-06-24T11:37:35;4.30;;;3.90;;
49175;SDS011;35012;47.200;9.748;2023-06-24T11:40:05;4.50;;;4.10;;
49175;SDS011;35012;47.200;9.748;2023-06-24T11:42:32;4.55;;;3.92;;
49175;SDS011;35012;47.200;9.748;2023-06-24T11:45:02;6.38;;;3.60;;
49175;SDS011;35012;47.200;9.748;2023-06-24T11:47:32;3.80;;;3.38;;
49175;SDS011;35012;47.200;9.748;2023-06-24T11:49:59;6.40;;;3.17;;
49175;SDS011;35012;47.200;9.748;2023-06-24T11:52:49;4.88;;;3.05;;
49175;SDS011;35012;47.200;9.748;2023-06-24T11:58:02;3.85;;;3.00;;
49175;SDS011;35012;47.200;9.748;2023-06-24T12:03:01;3.70;;;3.38;;
49175;SDS011;35012;47.200;9.748;2023-06-24T12:05:28;3.33;;;3.03;;
49175;SDS011;35012;47.200;9.748;2023-06-24T12:07:56;3.95;;;3.08;;
49175;SDS011;35012;47.200;9.748;2023-06-24T12:10:32;3.30;;;2.95;;
49175;SDS011;35012;47.200;9.748;2023-06-24T12:12:59;3.20;;;2.90;;
49175;SDS011;35012;47.200;9.748;2023-06-24T12:15:28;4.70;;;3.00;;
49175;SDS011;35012;47.200;9.748;2023-06-24T12:17:54;3.25;;;2.95;;
49175;SDS011;35012;47.200;9.748;2023-06-24T12:20:20;3.50;;;3.20;;
49175;SDS011;35012;47.200;9.748;2023-06-24T12:22:46;3.50;;;3.20;;
49175;SDS011;35012;47.200;9.748;2023-06-24T12:25:13;3.10;;;2.65;;
49175;SDS011;35012;47.200;9.748;2023-06-24T12:27:39;3.28;;;2.97;;
49175;SDS011;35012;47.200;9.748;2023-06-24T12:30:08;3.78;;;3.15;;
49175;SDS011;35012;47.200;9.748;2023-06-24T12:32:34;3.20;;;2.90;;
49175;SDS011;35012;47.200;9.748;2023-06-24T12:35:00;2.88;;;2.67;;
49175;SDS011;35012;47.200;9.748;2023-06-24T12:37:30;3.25;;;2.78;;
49175;SDS011;35012;47.200;9.748;2023-06-24T12:39:57;3.10;;;2.80;;
49175;SDS011;35012;47.200;9.748;2023-06-24T12:42:24;2.97;;;2.78;;
49175;SDS011;35012;47.200;9.748;2023-06-24T12:44:50;3.28;;;2.53;;
49175;SDS011;35012;47.200;9.748;2023-06-24T12:47:15;3.75;;;2.63;;
49175;SDS011;35012;47.200;9.748;2023-06-24T12:49:41;2.92;;;2.65;;
49175;SDS011;35012;47.200;9.748;2023-06-24T12:52:07;2.63;;;2.42;;
49175;SDS011;35012;47.200;9.748;2023-06-24T12:54:33;3.22;;;2.65;;
49175;SDS011;35012;47.200;9.748;2023-06-24T12:56:58;3.42;;;3.13;;
49175;SDS011;35012;47.200;9.748;2023-06-24T12:59:25;3.47;;;3.17;;
49175;SDS011;35012;47.200;9.748;2023-06-24T13:01:50;3.08;;;2.78;;
49175;SDS011;35012;47.200;9.748;2023-06-24T13:04:16;3.15;;;2.90;;
49175;SDS011;35012;47.200;9.748;2023-06-24T13:06:45;3.15;;;2.85;;
49175;SDS011;35012;47.200;9.748;2023-06-24T13:09:10;3.10;;;2.90;;
49175;SDS011;35012;47.200;9.748;2023-06-24T13:11:36;2.80;;;2.60;;
49175;SDS011;35012;47.200;9.748;2023-06-24T13:14:02;5.00;;;2.90;;
49175;SDS011;35012;47.200;9.748;2023-06-24T13:16:28;4.75;;;3.15;;
49175;SDS011;35012;47.200;9.748;2023-06-24T13:18:54;2.97;;;2.78;;
49175;SDS011;35012;47.200;9.748;2023-06-24T13:21:19;3.40;;;3.10;;
49175;SDS011;35012;47.200;9.748;2023-06-24T13:23:45;3.10;;;2.80;;
49175;SDS011;35012;47.200;9.748;2023-06-24T13:26:11;3.13;;;2.67;;
49175;SDS011;35012;47.200;9.748;2023-06-24T13:28:37;3.67;;;2.80;;
49175;SDS011;35012;47.200;9.748;2023-06-24T13:31:03;3.15;;;2.70;;
49175;SDS011;35012;47.200;9.748;2023-06-24T13:33:29;3.45;;;2.72;;
49175;SDS011;35012;47.200;9.748;2023-06-24T13:35:54;2.97;;;2.20;;
49175;SDS011;35012;47.200;9.748;2023-06-24T13:38:21;3.15;;;2.60;;
49175;SDS011;35012;47.200;9.748;2023-06-24T13:40:47;3.13;;;2.67;;
49175;SDS011;35012;47.200;9.748;2023-06-24T13:43:12;2.90;;;2.70;;
49175;SDS011;35012;47.200;9.748;2023-06-24T13:45:38;3.22;;;3.00;;
49175;SDS011;35012;47.200;9.748;2023-06-24T13:48:04;4.10;;;2.95;;
49175;SDS011;35012;47.200;9.748;2023-06-24T13:50:29;3.83;;;3.10;;
49175;SDS011;35012;47.200;9.748;2023-06-24T13:52:55;3.20;;;2.70;;
49175;SDS011;35012;47.200;9.748;2023-06-24T13:55:21;2.70;;;2.50;;
49175;SDS011;35012;47.200;9.748;2023-06-24T13:57:47;3.53;;;3.22;;
49175;SDS011;35012;47.200;9.748;2023-06-24T14:00:13;4.22;;;2.80;;
49175;SDS011;35012;47.200;9.748;2023-06-24T14:02:39;3.40;;;2.70;;
49175;SDS011;35012;47.200;9.748;2023-06-24T14:05:06;3.30;;;3.00;;
49175;SDS011;35012;47.200;9.748;2023-06-24T14:07:32;2.80;;;2.60;;
49175;SDS011;35012;47.200;9.748;2023-06-24T14:09:57;3.20;;;2.90;;
49175;SDS011;35012;47.200;9.748;2023-06-24T14:12:23;5.00;;;3.03;;
49175;SDS011;35012;47.200;9.748;2023-06-24T14:14:48;3.20;;;2.90;;
49175;SDS011;35012;47.200;9.748;2023-06-24T14:17:14;4.45;;;2.85;;
49175;SDS011;35012;47.200;9.748;2023-06-24T14:19:40;3.15;;;2.70;;
49175;SDS011;35012;47.200;9.748;2023-06-24T14:22:06;3.10;;;2.80;;
49175;SDS011;35012;47.200;9.748;2023-06-24T14:24:32;3.40;;;3.10;;
49175;SDS011;35012;47.200;9.748;2023-06-24T14:26:58;2.80;;;2.60;;
49175;SDS011;35012;47.200;9.748;2023-06-24T14:29:24;3.38;;;3.00;;
49175;SDS011;35012;47.200;9.748;2023-06-24T14:31:51;3.00;;;2.75;;
49175;SDS011;35012;47.200;9.748;2023-06-24T14:34:17;2.95;;;2.65;;
49175;SDS011;35012;47.200;9.748;2023-06-24T14:36:43;3.20;;;2.90;;
49175;SDS011;35012;47.200;9.748;2023-06-24T14:39:09;2.83;;;2.58;;
49175;SDS011;35012;47.200;9.748;2023-06-24T14:41:34;3.40;;;3.10;;
49175;SDS011;35012;47.200;9.748;2023-06-24T14:44:00;3.30;;;3.00;;
49175;SDS011;35012;47.200;9.748;2023-06-24T14:46:26;3.05;;;2.75;;
49175;SDS011;35012;47.200;9.748;2023-06-24T14:48:51;3.92;;;2.90;;
49175;SDS011;35012;47.200;9.748;2023-06-24T14:51:17;4.82;;;3.28;;
49175;SDS011;35012;47.200;9.748;2023-06-24T14:53:43;3.20;;;2.90;;
49175;SDS011;35012;47.200;9.748;2023-06-24T14:56:08;3.40;;;3.10;;
49175;SDS011;35012;47.200;9.748;2023-06-24T14:58:34;3.33;;;2.80;;
49175;SDS011;35012;47.200;9.748;2023-06-24T15:00:59;3.10;;;2.80;;
49175;SDS011;35012;47.200;9.748;2023-06-24T15:03:25;3.58;;;2.88;;